Houghton, MI (49931)

1:08 AM EDT on September 03, 2015 (GMT -0400)
Shopko Heights | | Change Station
CLOSE
Current Station
Personal Weather Station
Location: Houghton, MI
Elevation: 910 ft
Nearby Weather Stations

Elev 910 ft 47.12 °N, 88.59 °W | Updated 8 seconds ago

Fog
Fog
64.2 °F
Feels Like 64.2 °F
N
4.4
Wind Variable Wind from SE
Gusts 6.0 mph

Today
High -- | Low -- °F
--% Chance of Precip.
Yesterday
High -- | Low -- °F
Precip. -- in
7:15 AM 8:30 PM
Waning Gibbous, 74% visible
Pressure 29.98 in
Visibility 0.2 miles
Clouds
Dew Point 63 °F
Humidity 98%
Rainfall 0.00 in
Snow Depth Not available.
UV Not available.
Pollen 9.00 out of 12
Air Quality Not available.
Flu Activity Not available.
METAR KCMX 030453Z AUTO 11004KT 1/4SM FG VV001 18/17 A2998 RMK AO2 SLP151 T01780172 402170139 TSNO
Pressure 29.98 in
Visibility 0.2 miles
Clouds
Dew Point 63 °F
Humidity 98%
Rainfall 0.00 in
Snow Depth Not available.
UV Not available.
Pollen 9.00 out of 12
Air Quality Not available.
Flu Activity Not available.
METAR KCMX 030453Z AUTO 11004KT 1/4SM FG VV001 18/17 A2998 RMK AO2 SLP151 T01780172 402170139 TSNO

10-Day Weather Forecast

×

Almanac

Astronomy

Sep. 03, 2015 Rise Set
Actual Time
Civil Twilight
Nautical Twilight
Astronomical Twilight
Moon
Length of Visible Light
Length of Day
Tomorrow will be .
, % of the Moon is Illuminated

Today's Extremes

State Highs State Lows

Community

WunderPhotos

Upload Photos

1,851,914 photos uploaded!

WunderBlogs® & News

Nearby

Air Quality

  Air Quality AQ Index Pollutant
Not available.

Snow Depth

Station Depth Elevation

Earthquake Activity

City Distance Mag. Time & Date
Minimum magnitude displayed is 2.5.

Coastal Water Temperatures

Place Temperature

Stations

Nearby Weather Stations

Station Location Temp. Windchill Dew Point Humidity Wind Precip. Elev Updated Type